Thursday, November 23, 2017, 1:29 PM EST
Back to Local

KDKK, Chautauqua County/dunkirk

Location: Dunkirk, NY, United States Lat: 42.5
Local Time: 1:29 PM EST (18:29 GMT) Lon: -79.283
Time Zone: US/Eastern Elev: 692 ft

Show me the last for .
Show Decoded

2017-11-23 12:53 METAR KDKK 231753Z AUTO 20010KT 10SM BKN043 OVC100 02/M03 A3003 RMK AO2 SLP175
                 T00221033 10022 21006 58026 =
2017-11-23 11:53 METAR KDKK 231653Z AUTO 20010KT 10SM OVC032 01/M04 A3005 RMK AO2 SLP184
                 T00111039 =
2017-11-23 11:46 METAR KDKK 231646Z AUTO 20008KT 10SM OVC030 01/M04 A3006 RMK AO2 T00111039 =
2017-11-23 10:53 METAR KDKK 231553Z AUTO 19009KT 10SM OVC026 01/M04 A3008 RMK AO2 SLP194
                 T00061039 =
2017-11-23 09:53 METAR KDKK 231453Z AUTO 20009KT 10SM OVC025 01/M04 A3010 RMK AO2 SLP202
                 T00061039 58001 =
2017-11-23 08:53 METAR KDKK 231353Z AUTO 19008KT 10SM OVC025 00/M04 A3012 RMK AO2 SLP208
                 T00001039 =
2017-11-23 08:02 METAR KDKK 231302Z AUTO 19007KT 10SM OVC029 M01/M04 A3011 RMK AO2 T10061044 =
2017-11-23 07:53 METAR KDKK 231253Z AUTO 20007KT 10SM OVC030 M01/M04 A3011 RMK AO2 SLP205
                 T10061044 =
2017-11-23 06:53 METAR KDKK 231153Z AUTO 18009KT 10SM OVC038 M01/M05 A3011 RMK AO2 SLP202
                 T10061050 11006 21017 58017 =
2017-11-23 05:53 METAR KDKK 231053Z AUTO 19008KT 10SM OVC031 M01/M05 A3013 RMK AO2 SLP209
                 T10111050 =
2017-11-23 04:53 METAR KDKK 230953Z AUTO 19008KT 10SM OVC033 M01/M06 A3014 RMK AO2 SLP215
                 T10111056 =
2017-11-23 03:53 METAR KDKK 230853Z AUTO 19005KT 10SM OVC033 M01/M06 A3016 RMK AO2 SLP221
                 T10111056 58009 =
2017-11-23 02:53 METAR KDKK 230753Z AUTO 17006KT 10SM OVC032 M01/M06 A3017 RMK AO2 SLP225
                 T10111056 =
2017-11-23 01:53 METAR KDKK 230653Z AUTO 17005KT 10SM OVC032 M01/M06 A3017 RMK AO2 SLP225
                 T10111056 =
2017-11-23 00:53 METAR KDKK 230553Z AUTO 00000KT 10SM OVC035 M01/M07 A3018 RMK AO2 SLP229
                 T10061072 10000 21017 58008 =
2017-11-22 23:53 METAR KDKK 230453Z AUTO 36004KT 10SM OVC036 M01/M07 A3020 RMK AO2 SLP234
                 T10111072 400441017 =
2017-11-22 22:53 METAR KDKK 230353Z AUTO 35009KT 10SM BKN037 M01/M07 A3020 RMK AO2 SLP234
                 T10111072 =
2017-11-22 21:53 METAR KDKK 230253Z AUTO 36009G18KT 10SM CLR M02/M07 A3021 RMK AO2 SLP238
                 T10171067 58009 =
2017-11-22 20:53 METAR KDKK 230153Z AUTO 33013G17KT 10SM CLR M01/M07 A3022 RMK AO2 SLP243
                 T10111067 =
2017-11-22 19:53 METAR KDKK 230053Z AUTO 33009KT 10SM SCT049 M01/M06 A3024 RMK AO2 SLP247
                 T10111061 =
2017-11-22 18:53 METAR KDKK 222353Z AUTO 33010G17KT 10SM SCT034 OVC047 00/M06 A3024 RMK AO2
                 SLP246 T00001056 10006 20000 53010 =
2017-11-22 17:53 METAR KDKK 222253Z AUTO 31010G18KT 10SM OVC042 01/M06 A3023 RMK AO2 SLP243
                 T00061061 =
2017-11-22 16:53 METAR KDKK 222153Z AUTO 30010KT 10SM OVC039 01/M07 A3022 RMK AO2 SLP239
                 T00061067 =
2017-11-22 15:53 METAR KDKK 222053Z AUTO 30010G18KT 10SM OVC037 00/M07 A3021 RMK AO2 SLP236
                 T00001067 53013 =
2017-11-22 14:53 METAR KDKK 221953Z AUTO 29011KT 10SM OVC041 01/M07 A3018 RMK AO2 SLP227
                 T00061067 =
2017-11-22 13:53 METAR KDKK 221853Z AUTO 30009G18KT 10SM OVC037 00/M06 A3017 RMK AO2 SLP224
                 T00001061 =

Support USWX by starting your Amazon purchase here.